createdAt,value
2023-08-31T00:00:00.891Z,24.71
2023-08-31T00:03:03.764Z,24.70
2023-08-31T00:06:08.662Z,24.70
2023-08-31T00:09:11.232Z,24.70
2023-08-31T00:12:15.187Z,24.70
2023-08-31T00:15:17.831Z,24.69
2023-08-31T00:18:21.944Z,24.69
2023-08-31T00:21:24.910Z,24.69
2023-08-31T00:24:31.056Z,24.71
2023-08-31T00:27:34.905Z,24.69
2023-08-31T00:30:37.501Z,24.68
2023-08-31T00:33:40.215Z,24.69
2023-08-31T00:36:42.751Z,24.67
2023-08-31T00:39:45.390Z,24.69
2023-08-31T00:42:49.288Z,24.69
2023-08-31T00:45:55.272Z,24.69
2023-08-31T00:48:57.806Z,24.68
2023-08-31T00:52:00.369Z,24.68
2023-08-31T00:55:06.181Z,24.68
2023-08-31T00:58:10.679Z,24.68
2023-08-31T01:01:19.358Z,24.68
2023-08-31T01:04:28.118Z,24.67
2023-08-31T01:07:37.226Z,24.66
2023-08-31T01:10:45.317Z,24.68
2023-08-31T01:13:53.557Z,24.67
2023-08-31T01:16:57.651Z,24.67
2023-08-31T01:20:01.171Z,24.67
2023-08-31T01:23:05.452Z,24.67
2023-08-31T01:26:09.722Z,24.66
2023-08-31T01:29:12.326Z,24.65
2023-08-31T01:32:14.876Z,24.67
2023-08-31T01:35:20.153Z,24.66
2023-08-31T01:38:27.250Z,24.65
2023-08-31T01:41:32.929Z,24.66
2023-08-31T01:44:36.661Z,24.64
2023-08-31T01:47:39.535Z,24.65
2023-08-31T01:50:42.258Z,24.65
2023-08-31T01:53:45.749Z,24.63
2023-08-31T01:56:49.657Z,24.63
2023-08-31T01:59:52.208Z,24.66
2023-08-31T02:02:54.844Z,24.66
2023-08-31T02:05:58.488Z,24.64
2023-08-31T02:09:01.078Z,24.64
2023-08-31T02:12:05.685Z,24.63
2023-08-31T02:15:08.962Z,24.64
2023-08-31T02:18:11.537Z,24.63
2023-08-31T02:21:14.118Z,24.62
2023-08-31T02:24:16.671Z,24.63
2023-08-31T02:27:20.614Z,24.64
2023-08-31T02:30:23.455Z,24.62
2023-08-31T02:33:26.136Z,24.63
2023-08-31T02:36:28.750Z,24.63
2023-08-31T02:39:31.308Z,24.61
2023-08-31T02:42:35.191Z,24.61
2023-08-31T02:45:38.003Z,24.61
2023-08-31T02:48:40.702Z,24.61
2023-08-31T02:51:43.495Z,24.61
2023-08-31T02:54:45.985Z,24.59
2023-08-31T02:57:49.903Z,24.60
2023-08-31T03:00:52.909Z,24.62
2023-08-31T03:03:55.377Z,24.64
2023-08-31T03:06:57.939Z,24.63
2023-08-31T03:10:00.516Z,24.61
2023-08-31T03:13:04.776Z,24.62
2023-08-31T03:16:07.449Z,24.60
2023-08-31T03:19:10.056Z,24.61
2023-08-31T03:22:12.587Z,24.61
2023-08-31T03:25:15.188Z,24.61
2023-08-31T03:28:19.508Z,24.61
2023-08-31T03:31:22.986Z,24.58
2023-08-31T03:34:25.591Z,24.58
2023-08-31T03:37:28.419Z,24.58
2023-08-31T03:40:31.081Z,24.57
2023-08-31T03:43:35.301Z,24.57
2023-08-31T03:46:37.940Z,24.57
2023-08-31T03:49:40.691Z,24.58
2023-08-31T03:52:43.225Z,24.52
2023-08-31T03:55:45.776Z,24.22
2023-08-31T03:58:49.862Z,24.05
2023-08-31T04:01:52.446Z,23.85
2023-08-31T04:04:55.003Z,23.64
2023-08-31T04:07:57.528Z,23.52
2023-08-31T04:11:00.301Z,23.35
2023-08-31T04:14:04.282Z,23.17
2023-08-31T04:17:07.039Z,23.05
2023-08-31T04:20:10.082Z,23.17
2023-08-31T04:23:13.997Z,23.32
2023-08-31T04:26:18.573Z,23.43
2023-08-31T04:29:22.488Z,23.51
2023-08-31T04:32:25.102Z,23.56
2023-08-31T04:35:28.137Z,23.65
2023-08-31T04:38:30.625Z,23.68
2023-08-31T04:41:33.253Z,23.68
2023-08-31T04:44:37.151Z,23.69
2023-08-31T04:47:39.759Z,23.69
2023-08-31T04:50:42.256Z,23.71
2023-08-31T04:53:44.789Z,23.70
2023-08-31T04:56:47.363Z,23.70
2023-08-31T04:59:51.222Z,23.70
2023-08-31T05:02:53.790Z,23.71
2023-08-31T05:05:56.392Z,23.70
2023-08-31T05:08:58.971Z,23.70
2023-08-31T05:12:02.296Z,23.70
2023-08-31T05:15:07.347Z,23.70
2023-08-31T05:18:10.119Z,23.73
2023-08-31T05:21:12.680Z,23.77
2023-08-31T05:24:15.501Z,23.76
2023-08-31T05:27:18.061Z,23.81
2023-08-31T05:30:21.904Z,23.85
2023-08-31T05:33:26.465Z,23.86
2023-08-31T05:36:28.987Z,23.88
2023-08-31T05:39:31.535Z,23.86
2023-08-31T05:42:34.096Z,23.87
2023-08-31T05:45:38.073Z,23.89
2023-08-31T05:48:40.841Z,23.93
2023-08-31T05:51:43.416Z,23.93
2023-08-31T05:54:45.998Z,23.95
2023-08-31T05:57:48.559Z,23.97
2023-08-31T06:00:52.689Z,24.00
2023-08-31T06:03:55.283Z,24.02
2023-08-31T06:06:57.920Z,24.03
2023-08-31T06:10:00.469Z,24.03
2023-08-31T06:13:03.014Z,24.06
2023-08-31T06:16:07.144Z,24.05
2023-08-31T06:19:09.790Z,24.07
2023-08-31T06:22:12.335Z,24.07
2023-08-31T06:25:16.492Z,24.08
2023-08-31T06:28:19.123Z,24.11
2023-08-31T06:31:23.236Z,24.11
2023-08-31T06:34:25.897Z,24.11
2023-08-31T06:37:28.536Z,24.14
2023-08-31T06:40:32.354Z,24.15
2023-08-31T06:43:34.891Z,24.17
2023-08-31T06:46:39.995Z,24.18
2023-08-31T06:49:42.615Z,24.21
2023-08-31T06:52:47.724Z,24.22
2023-08-31T06:55:50.567Z,24.22
2023-08-31T06:58:53.120Z,24.26
2023-08-31T07:01:57.056Z,24.28
2023-08-31T07:04:59.668Z,24.30
2023-08-31T07:08:03.186Z,24.31
2023-08-31T07:11:05.785Z,24.35
2023-08-31T07:14:08.601Z,24.38
2023-08-31T07:17:12.565Z,24.35
2023-08-31T07:20:15.073Z,24.25
2023-08-31T07:23:17.634Z,23.98
2023-08-31T07:26:20.339Z,23.90
2023-08-31T07:29:22.947Z,23.97
2023-08-31T07:32:26.837Z,24.03
2023-08-31T07:35:29.358Z,24.07
2023-08-31T07:38:32.645Z,24.11
2023-08-31T07:41:35.171Z,24.15
2023-08-31T07:44:37.770Z,24.19
2023-08-31T07:47:41.734Z,24.21
2023-08-31T07:50:44.870Z,24.23
2023-08-31T07:53:47.469Z,24.24
2023-08-31T07:56:50.055Z,24.27
2023-08-31T07:59:52.665Z,24.29
2023-08-31T08:02:56.715Z,24.33
2023-08-31T08:05:59.413Z,24.35
2023-08-31T08:09:01.974Z,24.37
2023-08-31T08:12:05.096Z,24.40
2023-08-31T08:15:08.979Z,24.41
2023-08-31T08:18:12.879Z,24.46
2023-08-31T08:21:15.527Z,24.53
2023-08-31T08:24:18.164Z,24.57
2023-08-31T08:27:21.516Z,24.61
2023-08-31T08:30:24.135Z,24.66
2023-08-31T08:33:28.049Z,24.68
2023-08-31T08:36:31.055Z,24.72
2023-08-31T08:39:33.780Z,24.74
2023-08-31T08:42:42.194Z,24.73
2023-08-31T08:45:46.925Z,24.73
2023-08-31T08:48:51.489Z,24.76
2023-08-31T08:51:54.433Z,24.76
2023-08-31T08:54:58.116Z,24.76
2023-08-31T08:58:01.827Z,24.74
2023-08-31T09:01:05.197Z,24.75
2023-08-31T09:04:12.034Z,24.74
2023-08-31T09:07:14.569Z,24.77
2023-08-31T09:10:17.284Z,24.80
2023-08-31T09:13:21.087Z,24.80
2023-08-31T09:16:27.496Z,24.81
2023-08-31T09:19:31.528Z,24.80
2023-08-31T09:22:35.359Z,24.76
2023-08-31T09:25:44.864Z,24.77
2023-08-31T09:28:47.454Z,24.76
2023-08-31T09:31:50.152Z,24.78
2023-08-31T09:34:59.596Z,24.81
2023-08-31T09:38:12.309Z,24.80
2023-08-31T09:41:16.228Z,24.76
2023-08-31T09:44:20.308Z,24.75
2023-08-31T09:47:22.988Z,24.76
2023-08-31T09:50:27.720Z,24.77
2023-08-31T09:53:31.662Z,24.82
2023-08-31T09:56:35.224Z,24.84
2023-08-31T09:59:37.976Z,24.83
2023-08-31T10:02:40.603Z,24.83
2023-08-31T10:05:45.222Z,24.82
2023-08-31T10:08:47.812Z,24.81
2023-08-31T10:11:50.500Z,24.80
2023-08-31T10:14:53.733Z,24.81
2023-08-31T10:17:56.463Z,24.82
2023-08-31T10:21:00.393Z,24.86
2023-08-31T10:24:02.921Z,24.89
2023-08-31T10:27:19.556Z,24.91
2023-08-31T10:30:29.621Z,24.92
2023-08-31T10:33:33.864Z,24.92
2023-08-31T10:36:39.875Z,24.91
2023-08-31T10:39:42.494Z,24.90
2023-08-31T10:42:46.181Z,24.91
2023-08-31T10:45:48.800Z,24.91
2023-08-31T10:48:52.253Z,24.94
2023-08-31T10:51:59.056Z,24.95
2023-08-31T10:55:07.269Z,24.97
2023-08-31T10:58:11.926Z,24.99
2023-08-31T11:01:14.453Z,25.00
2023-08-31T11:04:17.071Z,25.00
2023-08-31T11:07:21.973Z,25.00
2023-08-31T11:10:27.939Z,24.99
2023-08-31T11:13:31.851Z,24.99
2023-08-31T11:16:34.435Z,24.97
2023-08-31T11:19:37.422Z,24.98
2023-08-31T11:22:43.188Z,25.00
2023-08-31T11:25:46.084Z,24.99
2023-08-31T11:28:48.608Z,24.99
2023-08-31T11:31:51.420Z,25.00
2023-08-31T11:34:53.986Z,25.02
2023-08-31T11:37:59.645Z,25.02
2023-08-31T11:41:02.631Z,25.04
2023-08-31T11:44:05.335Z,25.06
2023-08-31T11:47:08.029Z,25.03
2023-08-31T11:50:11.481Z,25.03
2023-08-31T11:53:15.788Z,25.02
2023-08-31T11:56:19.202Z,25.02
2023-08-31T11:59:22.373Z,25.03
2023-08-31T12:02:24.930Z,25.03
2023-08-31T12:05:27.874Z,25.04
2023-08-31T12:08:31.968Z,25.03
2023-08-31T12:11:34.656Z,25.03
2023-08-31T12:14:39.089Z,25.05
2023-08-31T12:17:42.050Z,25.05
2023-08-31T12:20:45.834Z,25.07
2023-08-31T12:23:49.869Z,25.08
2023-08-31T12:26:54.776Z,25.08
2023-08-31T12:29:58.708Z,25.07
2023-08-31T12:33:01.315Z,25.06
2023-08-31T12:36:05.026Z,25.03
2023-08-31T12:39:10.993Z,25.00
2023-08-31T12:42:23.320Z,24.97
2023-08-31T12:45:26.611Z,24.94
2023-08-31T12:48:29.311Z,24.93
2023-08-31T12:51:32.486Z,24.92
2023-08-31T12:54:36.372Z,24.92
2023-08-31T12:57:38.937Z,24.91
2023-08-31T13:00:41.924Z,24.91
2023-08-31T13:03:44.546Z,24.88
2023-08-31T13:06:47.572Z,24.86
2023-08-31T13:09:51.607Z,24.84
2023-08-31T13:12:54.164Z,24.85
2023-08-31T13:15:56.717Z,24.87
2023-08-31T13:18:59.265Z,24.87
2023-08-31T13:22:01.818Z,24.88
2023-08-31T13:25:06.733Z,24.87
2023-08-31T13:28:09.308Z,24.91
2023-08-31T13:31:13.079Z,24.96
2023-08-31T13:34:16.606Z,25.00
2023-08-31T13:37:19.184Z,25.01
2023-08-31T13:40:23.114Z,25.02
2023-08-31T13:43:27.096Z,25.02
2023-08-31T13:46:29.711Z,25.03
2023-08-31T13:49:33.472Z,25.02
2023-08-31T13:52:36.016Z,24.99
2023-08-31T13:55:39.938Z,25.03
2023-08-31T13:58:43.027Z,25.03
2023-08-31T14:01:45.625Z,25.01
2023-08-31T14:04:48.235Z,25.00
2023-08-31T14:07:50.736Z,24.94
2023-08-31T14:10:56.893Z,24.91
2023-08-31T14:14:06.268Z,24.86
2023-08-31T14:17:09.921Z,24.84
2023-08-31T14:20:13.015Z,24.81
2023-08-31T14:23:15.544Z,24.79
2023-08-31T14:26:19.403Z,24.78
2023-08-31T14:29:21.953Z,24.77
2023-08-31T14:32:24.616Z,24.75
2023-08-31T14:35:27.122Z,24.75
2023-08-31T14:38:29.838Z,24.75
2023-08-31T14:41:33.753Z,24.75
2023-08-31T14:44:36.323Z,24.74
2023-08-31T14:47:38.876Z,24.74
2023-08-31T14:50:44.618Z,24.72
2023-08-31T14:53:47.219Z,24.73
2023-08-31T14:56:51.938Z,24.73
2023-08-31T14:59:54.964Z,24.73
2023-08-31T15:02:57.418Z,24.76
2023-08-31T15:06:00.688Z,24.75
2023-08-31T15:09:04.072Z,24.76
2023-08-31T15:12:08.496Z,24.77
2023-08-31T15:15:12.035Z,24.77
2023-08-31T15:18:14.849Z,24.78
2023-08-31T15:21:18.277Z,24.77
2023-08-31T15:24:20.970Z,24.77
2023-08-31T15:27:24.860Z,24.77
2023-08-31T15:30:27.398Z,24.80
2023-08-31T15:33:29.989Z,24.85
2023-08-31T15:36:32.583Z,24.89
2023-08-31T15:39:35.221Z,24.91
2023-08-31T15:42:39.123Z,24.87
2023-08-31T15:45:46.715Z,24.85
2023-08-31T15:48:50.597Z,24.84
2023-08-31T15:51:53.260Z,24.81
2023-08-31T15:54:56.025Z,24.78
2023-08-31T15:58:00.125Z,24.76
2023-08-31T16:01:03.967Z,24.75
2023-08-31T16:04:06.920Z,24.74
2023-08-31T16:07:09.486Z,24.72
2023-08-31T16:10:12.121Z,24.71
2023-08-31T16:13:15.979Z,24.71
2023-08-31T16:16:18.584Z,24.70
2023-08-31T16:19:21.221Z,24.72
2023-08-31T16:22:23.791Z,24.72
2023-08-31T16:25:26.416Z,24.72
2023-08-31T16:28:31.717Z,24.72
2023-08-31T16:31:34.248Z,24.73
2023-08-31T16:34:36.918Z,24.76
2023-08-31T16:37:39.434Z,24.77
2023-08-31T16:40:41.963Z,24.79
2023-08-31T16:43:45.903Z,24.81
2023-08-31T16:46:48.465Z,24.80
2023-08-31T16:49:51.315Z,24.75
2023-08-31T16:52:53.849Z,24.73
2023-08-31T16:55:56.727Z,24.72
2023-08-31T16:59:00.965Z,24.73
2023-08-31T17:02:04.367Z,24.72
2023-08-31T17:05:07.392Z,24.71
2023-08-31T17:08:09.821Z,24.70
2023-08-31T17:11:12.834Z,24.68
2023-08-31T17:14:20.536Z,24.65
2023-08-31T17:17:26.481Z,24.64
2023-08-31T17:20:31.357Z,24.63
2023-08-31T17:23:34.496Z,24.61
2023-08-31T17:26:37.503Z,24.61
2023-08-31T17:29:41.452Z,24.60
2023-08-31T17:32:44.091Z,24.60
2023-08-31T17:35:46.674Z,24.59
2023-08-31T17:38:49.207Z,24.58
2023-08-31T17:41:51.755Z,24.60
2023-08-31T17:44:55.669Z,24.60
2023-08-31T17:47:58.446Z,24.59
2023-08-31T17:51:01.048Z,24.60
2023-08-31T17:54:03.702Z,24.56
2023-08-31T17:57:06.438Z,24.57
2023-08-31T18:00:11.402Z,24.57
2023-08-31T18:03:14.072Z,24.57
2023-08-31T18:06:17.048Z,24.58
2023-08-31T18:09:19.853Z,24.57
2023-08-31T18:12:22.390Z,24.57
2023-08-31T18:15:26.308Z,24.57
2023-08-31T18:18:28.882Z,24.56
2023-08-31T18:21:31.816Z,24.56
2023-08-31T18:24:34.213Z,24.57
2023-08-31T18:27:36.908Z,24.54
2023-08-31T18:30:40.801Z,24.54
2023-08-31T18:33:43.330Z,24.54
2023-08-31T18:36:45.865Z,24.53
2023-08-31T18:39:48.545Z,24.52
2023-08-31T18:42:51.043Z,24.53
2023-08-31T18:45:55.776Z,24.54
2023-08-31T18:48:58.636Z,24.53
2023-08-31T18:52:01.448Z,24.45
2023-08-31T18:55:04.110Z,24.41
2023-08-31T18:58:07.149Z,24.42
2023-08-31T19:01:11.434Z,24.45
2023-08-31T19:04:13.998Z,24.47
2023-08-31T19:07:16.984Z,24.49
2023-08-31T19:10:19.695Z,24.51
2023-08-31T19:13:22.206Z,24.51
2023-08-31T19:16:26.170Z,24.52
2023-08-31T19:19:28.710Z,24.53
2023-08-31T19:22:31.239Z,24.53
2023-08-31T19:25:33.855Z,24.55
2023-08-31T19:28:37.012Z,24.57
2023-08-31T19:31:40.949Z,24.57
2023-08-31T19:34:43.486Z,24.60
2023-08-31T19:37:50.616Z,24.60
2023-08-31T19:40:53.250Z,24.60
2023-08-31T19:43:55.788Z,24.63
2023-08-31T19:47:12.856Z,24.63
2023-08-31T19:50:18.396Z,24.63
2023-08-31T19:53:20.919Z,24.61
2023-08-31T19:56:23.528Z,24.61
2023-08-31T19:59:26.018Z,24.61
2023-08-31T20:02:29.938Z,24.61
2023-08-31T20:05:32.549Z,24.60
2023-08-31T20:08:36.905Z,24.61
2023-08-31T20:11:39.670Z,24.60
2023-08-31T20:14:42.213Z,24.59
2023-08-31T20:17:46.193Z,24.59
2023-08-31T20:20:49.901Z,24.59
2023-08-31T20:23:52.523Z,24.59
2023-08-31T20:26:55.524Z,24.59
2023-08-31T20:29:57.963Z,24.59
2023-08-31T20:33:01.924Z,24.59
2023-08-31T20:36:09.568Z,24.58
2023-08-31T20:39:13.627Z,24.58
2023-08-31T20:42:16.794Z,24.57
2023-08-31T20:45:19.458Z,24.56
2023-08-31T20:48:28.264Z,24.56
2023-08-31T20:51:30.838Z,24.58
2023-08-31T20:54:34.674Z,24.57
2023-08-31T20:57:37.359Z,24.58
2023-08-31T21:00:40.064Z,24.58
2023-08-31T21:03:46.474Z,24.57
2023-08-31T21:06:50.247Z,24.57
2023-08-31T21:09:52.807Z,24.57
2023-08-31T21:12:55.383Z,24.57
2023-08-31T21:15:58.191Z,24.57
2023-08-31T21:19:04.843Z,24.56
2023-08-31T21:22:07.425Z,24.57
2023-08-31T21:25:10.264Z,24.55
2023-08-31T21:28:13.157Z,24.56
2023-08-31T21:31:16.020Z,24.56
2023-08-31T21:34:20.109Z,24.56
2023-08-31T21:37:22.638Z,24.56
2023-08-31T21:40:25.265Z,24.56
2023-08-31T21:43:27.795Z,24.55
2023-08-31T21:46:30.476Z,24.55
2023-08-31T21:49:34.313Z,24.55
2023-08-31T21:52:38.577Z,24.53
2023-08-31T21:55:41.122Z,24.54
2023-08-31T21:58:43.900Z,24.54
2023-08-31T22:01:46.453Z,24.55
2023-08-31T22:04:51.869Z,24.54
2023-08-31T22:07:54.744Z,24.55
2023-08-31T22:10:57.608Z,24.54
2023-08-31T22:14:00.303Z,24.54
2023-08-31T22:17:04.227Z,24.54
2023-08-31T22:20:12.996Z,24.53
2023-08-31T22:23:15.688Z,24.53
2023-08-31T22:26:18.374Z,24.53
2023-08-31T22:29:21.040Z,24.52
2023-08-31T22:32:23.804Z,24.52
2023-08-31T22:35:27.780Z,24.53
2023-08-31T22:38:30.308Z,24.52
2023-08-31T22:41:32.992Z,24.53
2023-08-31T22:44:35.494Z,24.51
2023-08-31T22:47:38.274Z,24.52
2023-08-31T22:50:42.178Z,24.51
2023-08-31T22:53:44.723Z,24.52
2023-08-31T22:56:47.312Z,24.52
2023-08-31T22:59:49.927Z,24.52
2023-08-31T23:02:52.553Z,24.52
2023-08-31T23:05:56.512Z,24.52
2023-08-31T23:08:59.425Z,24.53
2023-08-31T23:12:02.081Z,24.53
2023-08-31T23:15:05.216Z,24.53
2023-08-31T23:18:07.898Z,24.53
2023-08-31T23:21:13.957Z,24.54
2023-08-31T23:24:16.496Z,24.54
2023-08-31T23:27:19.040Z,24.53
2023-08-31T23:30:21.605Z,24.53
2023-08-31T23:33:24.227Z,24.52
2023-08-31T23:36:28.109Z,24.53
2023-08-31T23:39:30.653Z,24.52
2023-08-31T23:42:33.135Z,24.52
2023-08-31T23:45:35.625Z,24.52
2023-08-31T23:48:38.153Z,24.52
2023-08-31T23:51:41.984Z,24.52
2023-08-31T23:54:45.247Z,24.53
2023-08-31T23:57:47.782Z,24.52
